Time;durP1;ratioP1;P1;durP2;ratioP2;P2;SDS_P1;SDS_P2;PMS_P1;PMS_P2;Temp;Humidity;BMP_temperature;BMP_pressure;BME280_temperature;BME280_humidity;BME280_pressure;Samples;Min_cycle;Max_cycle;Signal;HPM_P1;HPM_P2
2023/06/14 00:01:14;;;;;;;6.00;5.20;;;;;;;;;;5054554;28;20477;-58
2023/06/14 00:03:40;;;;;;;5.90;5.40;;;;;;;;;;5054447;28;20845;-58
2023/06/14 00:06:08;;;;;;;6.10;5.50;;;;;;;;;;5054781;28;20445;-58
2023/06/14 00:08:37;;;;;;;5.07;4.70;;;;;;;;;;5053161;28;20519;-58
2023/06/14 00:11:05;;;;;;;6.13;5.53;;;;;;;;;;5054473;28;20476;-59
2023/06/14 00:13:31;;;;;;;6.13;5.57;;;;;;;;;;5054922;28;20426;-59
2023/06/14 00:15:57;;;;;;;6.47;4.93;;;;;;;;;;5054596;28;20507;-59
2023/06/14 00:18:29;;;;;;;6.70;5.50;;;;;;;;;;5054608;28;20421;-59
2023/06/14 00:20:57;;;;;;;9.90;4.77;;;;;;;;;;5054518;28;20953;-59
2023/06/14 00:23:23;;;;;;;6.90;5.23;;;;;;;;;;5054638;28;20535;-59
2023/06/14 00:25:49;;;;;;;4.87;4.57;;;;;;;;;;5054406;28;20445;-59
2023/06/14 00:28:15;;;;;;;9.27;4.87;;;;;;;;;;5054693;28;20875;-59
2023/06/14 00:30:43;;;;;;;6.07;5.47;;;;;;;;;;5053837;28;20536;-59
2023/06/14 00:33:09;;;;;;;5.57;5.27;;;;;;;;;;5054265;28;20891;-59
2023/06/14 00:35:38;;;;;;;6.70;5.50;;;;;;;;;;5054189;28;20468;-59
2023/06/14 00:38:04;;;;;;;5.80;5.40;;;;;;;;;;5054424;28;20409;-59
2023/06/14 00:40:30;;;;;;;6.23;5.63;;;;;;;;;;5052778;28;20424;-59
2023/06/14 00:42:56;;;;;;;5.10;4.80;;;;;;;;;;5054267;28;20946;-59
2023/06/14 00:45:24;;;;;;;5.93;5.40;;;;;;;;;;5054140;28;20469;-59
2023/06/14 00:47:55;;;;;;;11.73;5.60;;;;;;;;;;5053929;28;20434;-59
2023/06/14 00:50:23;;;;;;;5.03;4.73;;;;;;;;;;5054023;28;20494;-59
2023/06/14 00:52:50;;;;;;;4.60;4.40;;;;;;;;;;5053946;28;20412;-59
2023/06/14 00:55:19;;;;;;;7.57;5.20;;;;;;;;;;5053775;28;20464;-59
2023/06/14 00:57:45;;;;;;;5.50;5.00;;;;;;;;;;5053803;28;20470;-59
2023/06/14 01:00:11;;;;;;;5.03;4.67;;;;;;;;;;5053820;28;20491;-59
2023/06/14 01:02:37;;;;;;;5.10;4.90;;;;;;;;;;5053833;28;20460;-59
2023/06/14 01:05:06;;;;;;;5.07;4.77;;;;;;;;;;5054030;28;20791;-59
2023/06/14 01:07:47;;;;;;;6.23;5.63;;;;;;;;;;5053951;28;20424;-59
2023/06/14 01:10:20;;;;;;;7.83;5.23;;;;;;;;;;5053767;28;20397;-59
2023/06/14 01:13:03;;;;;;;7.00;5.30;;;;;;;;;;5053951;28;20478;-59
2023/06/14 01:15:33;;;;;;;7.30;5.30;;;;;;;;;;5052258;28;20522;-59
2023/06/14 01:18:03;;;;;;;5.63;5.33;;;;;;;;;;5053428;28;20415;-58
2023/06/14 01:20:30;;;;;;;10.93;5.47;;;;;;;;;;5053363;28;20427;-59
2023/06/14 01:22:56;;;;;;;5.73;5.17;;;;;;;;;;5053541;28;20389;-59
2023/06/14 01:25:23;;;;;;;4.87;4.57;;;;;;;;;;5053211;28;20421;-59
2023/06/14 01:27:52;;;;;;;5.60;5.20;;;;;;;;;;5051769;28;20410;-61
2023/06/14 01:30:21;;;;;;;4.90;4.70;;;;;;;;;;5053311;28;20783;-61
2023/06/14 01:32:47;;;;;;;6.27;5.77;;;;;;;;;;5051910;28;20423;-61
2023/06/14 01:35:13;;;;;;;6.50;4.93;;;;;;;;;;5053114;28;21010;-59
2023/06/14 01:37:40;;;;;;;6.80;5.33;;;;;;;;;;5053108;28;20458;-59
2023/06/14 01:40:06;;;;;;;5.67;5.17;;;;;;;;;;5053433;28;20822;-59
2023/06/14 01:42:34;;;;;;;7.27;5.93;;;;;;;;;;5052292;28;20412;-59
2023/06/14 01:45:01;;;;;;;5.03;4.63;;;;;;;;;;5051785;28;20420;-59
2023/06/14 01:47:27;;;;;;;6.13;5.30;;;;;;;;;;5053137;28;20568;-59
2023/06/14 01:49:53;;;;;;;6.60;6.03;;;;;;;;;;5052930;28;20416;-59
2023/06/14 01:52:19;;;;;;;5.07;4.60;;;;;;;;;;5052894;28;20458;-59
2023/06/14 01:54:49;;;;;;;7.80;5.10;;;;;;;;;;5053019;28;20875;-59
2023/06/14 01:57:15;;;;;;;5.90;5.53;;;;;;;;;;5052758;28;20439;-59
2023/06/14 01:59:41;;;;;;;5.47;5.20;;;;;;;;;;5052663;28;20411;-59
2023/06/14 02:02:07;;;;;;;5.73;5.17;;;;;;;;;;5052773;28;20460;-59
2023/06/14 02:04:33;;;;;;;6.20;5.60;;;;;;;;;;5052633;28;20407;-59
2023/06/14 02:06:59;;;;;;;5.60;5.20;;;;;;;;;;5052515;28;20445;-59
2023/06/14 02:09:28;;;;;;;5.77;5.27;;;;;;;;;;5052806;28;20482;-59
2023/06/14 02:11:54;;;;;;;5.63;5.23;;;;;;;;;;5052557;28;20448;-61
2023/06/14 02:14:21;;;;;;;6.10;5.70;;;;;;;;;;5052572;28;20506;-61
2023/06/14 02:16:48;;;;;;;7.07;5.60;;;;;;;;;;5052551;28;20522;-61
2023/06/14 02:19:17;;;;;;;7.20;5.40;;;;;;;;;;5052441;28;20437;-61
2023/06/14 02:21:44;;;;;;;6.43;5.03;;;;;;;;;;5052419;28;20986;-61
2023/06/14 02:24:10;;;;;;;5.60;5.10;;;;;;;;;;5052451;28;20895;-59
2023/06/14 02:26:37;;;;;;;6.13;4.97;;;;;;;;;;5052301;28;20442;-59
2023/06/14 02:29:08;;;;;;;5.80;5.40;;;;;;;;;;5052443;28;20399;-59
2023/06/14 02:31:36;;;;;;;8.37;5.83;;;;;;;;;;5052733;28;20538;-61
2023/06/14 02:34:03;;;;;;;5.23;5.00;;;;;;;;;;5052202;28;20463;-61
2023/06/14 02:36:31;;;;;;;6.47;5.90;;;;;;;;;;5052431;28;20446;-61
2023/06/14 02:39:00;;;;;;;6.83;5.30;;;;;;;;;;5052253;28;20428;-61
2023/06/14 02:41:28;;;;;;;6.20;5.63;;;;;;;;;;5052382;28;20450;-61
2023/06/14 02:43:55;;;;;;;5.73;5.43;;;;;;;;;;5052306;28;20419;-61
2023/06/14 02:46:21;;;;;;;6.10;4.97;;;;;;;;;;5052130;28;20960;-61
2023/06/14 02:48:47;;;;;;;6.70;6.10;;;;;;;;;;5052284;28;20415;-61
2023/06/14 02:51:13;;;;;;;5.80;5.37;;;;;;;;;;5052183;28;20549;-61
2023/06/14 02:53:40;;;;;;;6.00;5.60;;;;;;;;;;5054820;28;20890;-61
2023/06/14 02:56:06;;;;;;;5.17;4.80;;;;;;;;;;5056102;28;20494;-62
2023/06/14 02:58:33;;;;;;;5.87;5.37;;;;;;;;;;5056154;28;20464;-61
2023/06/14 03:01:03;;;;;;;9.00;6.13;;;;;;;;;;5055972;28;20407;-61
2023/06/14 03:03:31;;;;;;;6.23;5.63;;;;;;;;;;5056002;28;20431;-61
2023/06/14 03:05:58;;;;;;;6.00;5.20;;;;;;;;;;5055978;28;20479;-61
2023/06/14 03:08:26;;;;;;;7.20;5.60;;;;;;;;;;5055938;28;20418;-61
2023/06/14 03:10:57;;;;;;;5.50;4.97;;;;;;;;;;5055844;28;20461;-61
2023/06/14 03:13:23;;;;;;;7.63;5.03;;;;;;;;;;5056239;28;20394;-61
2023/06/14 03:15:56;;;;;;;5.83;5.40;;;;;;;;;;5055761;28;20546;-61
2023/06/14 03:18:22;;;;;;;5.80;5.30;;;;;;;;;;5056074;28;20399;-61
2023/06/14 03:20:51;;;;;;;5.77;5.27;;;;;;;;;;5055781;28;20407;-61
2023/06/14 03:23:17;;;;;;;5.73;5.40;;;;;;;;;;5055646;28;20415;-62
2023/06/14 03:25:43;;;;;;;6.43;5.63;;;;;;;;;;5055561;28;20898;-62
2023/06/14 03:28:10;;;;;;;5.73;5.23;;;;;;;;;;5055450;28;20453;-61
2023/06/14 03:30:36;;;;;;;7.87;5.27;;;;;;;;;;5055596;28;20420;-61
2023/06/14 03:33:02;;;;;;;7.03;5.57;;;;;;;;;;5055641;28;20881;-61
2023/06/14 03:35:28;;;;;;;8.83;5.13;;;;;;;;;;5054187;28;20473;-61
2023/06/14 03:37:54;;;;;;;5.47;4.97;;;;;;;;;;5055584;28;20414;-61
2023/06/14 03:40:21;;;;;;;6.23;5.57;;;;;;;;;;5055727;28;20415;-61
2023/06/14 03:42:47;;;;;;;6.37;5.90;;;;;;;;;;5055458;28;20514;-61
2023/06/14 03:45:16;;;;;;;10.43;6.00;;;;;;;;;;5055403;28;20511;-61
2023/06/14 03:47:44;;;;;;;7.47;5.90;;;;;;;;;;5055370;28;20440;-61
2023/06/14 03:50:11;;;;;;;11.20;5.67;;;;;;;;;;5055121;28;20897;-61
2023/06/14 03:52:37;;;;;;;6.30;5.90;;;;;;;;;;5055144;28;20945;-61
2023/06/14 03:55:03;;;;;;;6.03;5.53;;;;;;;;;;5055088;28;20458;-61
2023/06/14 03:57:30;;;;;;;6.30;5.73;;;;;;;;;;5055083;28;20488;-61
2023/06/14 03:59:58;;;;;;;6.37;5.77;;;;;;;;;;5055162;28;20473;-61
2023/06/14 04:02:25;;;;;;;6.40;5.73;;;;;;;;;;5054766;28;20454;-61
2023/06/14 04:04:51;;;;;;;8.77;5.77;;;;;;;;;;5053993;28;20908;-59
2023/06/14 04:07:19;;;;;;;5.63;5.30;;;;;;;;;;5054807;28;20528;-59
2023/06/14 04:09:45;;;;;;;6.37;5.73;;;;;;;;;;5055171;28;20438;-59
2023/06/14 04:12:11;;;;;;;6.10;5.80;;;;;;;;;;5054739;28;20434;-59
2023/06/14 04:14:37;;;;;;;6.03;5.60;;;;;;;;;;5054795;28;20482;-59
2023/06/14 04:17:03;;;;;;;6.03;5.43;;;;;;;;;;5054726;28;20438;-61
2023/06/14 04:19:29;;;;;;;10.70;6.37;;;;;;;;;;5054712;28;20836;-61
2023/06/14 04:21:55;;;;;;;7.30;6.00;;;;;;;;;;5054669;28;20435;-61
2023/06/14 04:24:23;;;;;;;7.70;6.30;;;;;;;;;;5054457;28;20411;-61
2023/06/14 04:26:51;;;;;;;7.77;5.90;;;;;;;;;;5054436;28;20425;-61
2023/06/14 04:29:24;;;;;;;9.33;5.87;;;;;;;;;;5054585;28;20399;-61
2023/06/14 04:31:53;;;;;;;6.07;5.60;;;;;;;;;;5054447;28;20453;-61
2023/06/14 04:34:19;;;;;;;6.50;5.87;;;;;;;;;;5054227;28;20826;-61
2023/06/14 04:36:48;;;;;;;6.23;5.77;;;;;;;;;;5054277;28;20418;-61
2023/06/14 04:39:15;;;;;;;7.90;6.07;;;;;;;;;;5052998;28;20506;-61
2023/06/14 04:41:41;;;;;;;5.90;5.40;;;;;;;;;;5054195;28;20882;-61
2023/06/14 04:44:10;;;;;;;5.37;4.70;;;;;;;;;;5054186;28;20423;-61
2023/06/14 04:46:46;;;;;;;6.47;5.97;;;;;;;;;;5054002;28;20433;-61
2023/06/14 04:49:23;;;;;;;5.50;5.10;;;;;;;;;;5054117;28;20398;-61
2023/06/14 04:51:57;;;;;;;5.70;5.30;;;;;;;;;;5054141;28;20452;-61
2023/06/14 04:54:24;;;;;;;6.07;5.30;;;;;;;;;;5053926;28;20505;-61
2023/06/14 04:56:50;;;;;;;7.07;4.97;;;;;;;;;;5053808;28;20419;-62
2023/06/14 04:59:17;;;;;;;5.60;5.17;;;;;;;;;;5053863;28;20403;-61
2023/06/14 05:01:47;;;;;;;6.93;5.10;;;;;;;;;;5053776;28;20462;-62
2023/06/14 05:04:15;;;;;;;5.80;4.90;;;;;;;;;;5053957;28;20486;-61
2023/06/14 05:06:41;;;;;;;8.30;5.20;;;;;;;;;;5053725;28;20486;-62
2023/06/14 05:09:09;;;;;;;12.43;5.43;;;;;;;;;;5053521;28;20911;-62
2023/06/14 05:11:35;;;;;;;5.50;4.77;;;;;;;;;;5053595;28;20450;-61
2023/06/14 05:14:01;;;;;;;11.13;5.20;;;;;;;;;;5053627;28;20540;-61
2023/06/14 05:16:29;;;;;;;5.70;5.30;;;;;;;;;;5053215;28;20906;-61
2023/06/14 05:18:55;;;;;;;6.93;6.37;;;;;;;;;;5053462;28;20424;-61
2023/06/14 05:21:23;;;;;;;6.00;5.60;;;;;;;;;;5053382;28;20752;-62
2023/06/14 05:23:50;;;;;;;14.10;5.43;;;;;;;;;;5053472;28;20439;-61
2023/06/14 05:26:16;;;;;;;7.70;6.00;;;;;;;;;;5053329;28;20838;-61
2023/06/14 05:28:42;;;;;;;6.43;5.90;;;;;;;;;;5053247;28;20436;-59
2023/06/14 05:31:08;;;;;;;6.40;5.80;;;;;;;;;;5053154;28;20418;-61
2023/06/14 05:33:37;;;;;;;6.50;5.93;;;;;;;;;;5052965;28;20916;-61
2023/06/14 05:36:05;;;;;;;15.90;7.27;;;;;;;;;;5053333;28;20487;-61
2023/06/14 05:38:31;;;;;;;7.80;6.43;;;;;;;;;;5051864;28;20433;-61
2023/06/14 05:40:57;;;;;;;7.87;6.60;;;;;;;;;;5053145;28;20500;-61
2023/06/14 05:43:25;;;;;;;14.60;6.07;;;;;;;;;;5053048;28;20443;-61
2023/06/14 05:45:54;;;;;;;9.23;6.70;;;;;;;;;;5053197;28;20427;-61
2023/06/14 05:48:20;;;;;;;12.60;6.60;;;;;;;;;;5052810;28;20414;-59
2023/06/14 05:50:46;;;;;;;10.30;6.80;;;;;;;;;;5052854;28;20937;-61
2023/06/14 05:53:12;;;;;;;9.10;6.83;;;;;;;;;;5052912;28;20528;-61
2023/06/14 05:55:38;;;;;;;8.97;6.90;;;;;;;;;;5052894;28;20473;-62
2023/06/14 05:58:04;;;;;;;6.60;6.20;;;;;;;;;;5052625;28;20533;-60
2023/06/14 06:00:32;;;;;;;7.40;6.70;;;;;;;;;;5052127;28;20425;-59
2023/06/14 06:02:59;;;;;;;7.37;6.77;;;;;;;;;;5052517;28;20609;-61
2023/06/14 06:05:25;;;;;;;8.40;7.53;;;;;;;;;;5052769;28;20837;-59
2023/06/14 06:07:51;;;;;;;10.53;6.87;;;;;;;;;;5052349;28;20450;-59
2023/06/14 06:10:17;;;;;;;7.53;6.53;;;;;;;;;;5052517;28;20480;-59
2023/06/14 06:12:43;;;;;;;7.60;7.00;;;;;;;;;;5052228;28;20422;-60
2023/06/14 06:15:11;;;;;;;8.23;7.40;;;;;;;;;;5052477;28;20500;-59
2023/06/14 06:17:40;;;;;;;9.00;6.90;;;;;;;;;;5052319;28;20425;-59
2023/06/14 06:20:08;;;;;;;12.23;6.60;;;;;;;;;;5052612;28;20394;-60
2023/06/14 06:22:34;;;;;;;7.87;6.83;;;;;;;;;;5052265;28;20766;-59
2023/06/14 06:25:00;;;;;;;11.63;6.53;;;;;;;;;;5052476;28;20424;-59
2023/06/14 06:27:28;;;;;;;6.60;6.10;;;;;;;;;;5052009;28;20474;-59
2023/06/14 06:29:54;;;;;;;16.80;6.97;;;;;;;;;;5052418;28;20413;-59
2023/06/14 06:32:20;;;;;;;9.23;7.13;;;;;;;;;;5052415;28;20484;-59
2023/06/14 06:34:46;;;;;;;8.60;6.77;;;;;;;;;;5052418;28;20469;-59
2023/06/14 06:37:15;;;;;;;6.60;6.00;;;;;;;;;;5052499;28;20978;-59
2023/06/14 06:39:41;;;;;;;10.47;6.27;;;;;;;;;;5052291;28;20449;-59
2023/06/14 06:42:09;;;;;;;9.33;6.77;;;;;;;;;;5052347;28;20426;-59
2023/06/14 06:44:35;;;;;;;13.33;6.47;;;;;;;;;;5052336;28;20492;-60
2023/06/14 06:47:03;;;;;;;6.50;6.10;;;;;;;;;;5052173;28;20819;-59
2023/06/14 06:49:30;;;;;;;9.00;6.33;;;;;;;;;;5052025;28;20435;-59
2023/06/14 06:52:02;;;;;;;10.37;6.30;;;;;;;;;;5052211;28;20809;-60
2023/06/14 06:54:28;;;;;;;7.07;6.47;;;;;;;;;;5052163;28;20745;-60
2023/06/14 06:56:54;;;;;;;7.07;6.03;;;;;;;;;;5052141;28;20426;-60
2023/06/14 06:59:22;;;;;;;6.80;6.33;;;;;;;;;;5052150;28;20434;-59
2023/06/14 07:01:48;;;;;;;6.33;5.80;;;;;;;;;;5052082;28;20903;-59
2023/06/14 07:04:17;;;;;;;9.37;6.80;;;;;;;;;;5052105;28;20489;-60
2023/06/14 07:06:43;;;;;;;7.07;6.37;;;;;;;;;;5052035;28;20850;-59
2023/06/14 07:09:14;;;;;;;8.57;5.80;;;;;;;;;;5052174;28;20446;-59
2023/06/14 07:11:40;;;;;;;10.27;7.00;;;;;;;;;;5052456;28;20400;-60
2023/06/14 07:14:08;;;;;;;12.83;9.83;;;;;;;;;;5051774;28;21020;-60
2023/06/14 07:16:34;;;;;;;7.30;6.67;;;;;;;;;;5052056;28;20412;-59
2023/06/14 07:19:02;;;;;;;6.50;5.90;;;;;;;;;;5051808;28;20435;-59
2023/06/14 07:21:28;;;;;;;7.23;6.53;;;;;;;;;;5052309;28;20432;-60
2023/06/14 07:23:54;;;;;;;7.27;6.40;;;;;;;;;;5051786;28;20436;-59
2023/06/14 07:26:20;;;;;;;9.63;8.80;;;;;;;;;;5051798;28;20840;-59
2023/06/14 07:28:47;;;;;;;5.77;5.30;;;;;;;;;;5051799;28;20472;-60
2023/06/14 07:31:16;;;;;;;10.50;6.20;;;;;;;;;;5051741;28;20856;-59
2023/06/14 07:33:45;;;;;;;15.23;11.70;;;;;;;;;;5051704;28;20911;-60
2023/06/14 07:36:11;;;;;;;15.67;12.33;;;;;;;;;;5051778;28;20405;-60
2023/06/14 07:38:37;;;;;;;5.30;5.10;;;;;;;;;;5051772;28;20438;-60
2023/06/14 07:41:03;;;;;;;11.07;6.30;;;;;;;;;;5054715;28;20490;-59
2023/06/14 07:43:29;;;;;;;6.27;5.70;;;;;;;;;;5055214;28;20437;-60
2023/06/14 07:46:00;;;;;;;8.20;6.00;;;;;;;;;;5055138;28;20889;-60
2023/06/14 07:48:26;;;;;;;6.73;5.90;;;;;;;;;;5055187;28;20416;-60
2023/06/14 07:50:52;;;;;;;5.60;5.10;;;;;;;;;;5055151;28;20413;-59
2023/06/14 07:53:18;;;;;;;16.50;6.70;;;;;;;;;;5055060;28;20417;-60
2023/06/14 07:55:44;;;;;;;10.00;6.57;;;;;;;;;;5055104;28;20458;-59
2023/06/14 07:58:10;;;;;;;14.67;6.20;;;;;;;;;;5055244;28;20412;-60
2023/06/14 08:00:39;;;;;;;7.50;5.93;;;;;;;;;;5054945;28;20419;-60
2023/06/14 08:03:05;;;;;;;7.07;5.27;;;;;;;;;;5054698;28;20473;-60
2023/06/14 08:05:31;;;;;;;6.20;5.60;;;;;;;;;;5054915;28;20457;-60
2023/06/14 08:07:59;;;;;;;6.83;5.30;;;;;;;;;;5054984;28;20872;-60
2023/06/14 08:10:25;;;;;;;12.50;5.93;;;;;;;;;;5054609;28;20417;-60
2023/06/14 08:12:51;;;;;;;9.27;5.50;;;;;;;;;;5054519;28;20455;-59
2023/06/14 08:15:17;;;;;;;5.57;5.17;;;;;;;;;;5053383;28;20535;-59
2023/06/14 08:17:46;;;;;;;5.97;5.33;;;;;;;;;;5054171;28;20413;-58
2023/06/14 08:20:16;;;;;;;6.13;4.83;;;;;;;;;;5054195;28;20443;-59
2023/06/14 08:22:42;;;;;;;7.67;5.40;;;;;;;;;;5054326;28;20423;-59
2023/06/14 08:25:09;;;;;;;6.00;5.57;;;;;;;;;;5054029;28;20786;-58
2023/06/14 08:27:35;;;;;;;10.80;5.20;;;;;;;;;;5053953;28;20505;-59
2023/06/14 08:30:02;;;;;;;5.57;5.27;;;;;;;;;;5054148;28;20436;-59
2023/06/14 08:32:28;;;;;;;9.20;4.87;;;;;;;;;;5053896;28;20416;-59
2023/06/14 08:34:57;;;;;;;5.63;4.87;;;;;;;;;;5054580;28;20484;-59
2023/06/14 08:37:26;;;;;;;7.77;5.07;;;;;;;;;;5054101;28;20441;-58
2023/06/14 08:39:52;;;;;;;6.70;5.00;;;;;;;;;;5054142;28;20472;-59
2023/06/14 08:42:19;;;;;;;4.73;4.43;;;;;;;;;;5054190;28;20424;-58
2023/06/14 08:44:45;;;;;;;7.80;5.23;;;;;;;;;;5054042;28;20520;-58
2023/06/14 08:47:12;;;;;;;8.23;5.20;;;;;;;;;;5053716;28;20515;-58
2023/06/14 08:49:42;;;;;;;5.23;4.73;;;;;;;;;;5053504;28;20828;-58
2023/06/14 08:52:10;;;;;;;4.97;4.57;;;;;;;;;;5053381;28;20418;-59
2023/06/14 08:54:43;;;;;;;8.70;5.67;;;;;;;;;;5053635;28;20476;-59
2023/06/14 08:57:15;;;;;;;5.00;4.60;;;;;;;;;;5053619;28;20423;-58
2023/06/14 08:59:43;;;;;;;12.83;5.20;;;;;;;;;;5053891;28;20491;-59
2023/06/14 09:02:14;;;;;;;6.83;4.90;;;;;;;;;;5053084;28;20537;-58
2023/06/14 09:04:41;;;;;;;5.70;4.80;;;;;;;;;;5053659;28;20492;-59
2023/06/14 09:07:07;;;;;;;5.10;4.70;;;;;;;;;;5053470;28;20476;-58
2023/06/14 09:09:34;;;;;;;7.90;4.87;;;;;;;;;;5052423;28;20455;-59
2023/06/14 09:12:00;;;;;;;13.63;5.43;;;;;;;;;;5053232;28;20482;-58
2023/06/14 09:14:28;;;;;;;5.27;4.73;;;;;;;;;;5053465;28;20478;-58
2023/06/14 09:16:57;;;;;;;6.27;5.67;;;;;;;;;;5053635;28;20466;-58
2023/06/14 09:19:26;;;;;;;8.60;5.20;;;;;;;;;;5052983;28;20435;-58
2023/06/14 09:21:53;;;;;;;5.03;4.70;;;;;;;;;;5053113;28;20428;-58
2023/06/14 09:24:19;;;;;;;5.07;4.77;;;;;;;;;;5053097;28;20482;-58
2023/06/14 09:26:48;;;;;;;10.00;4.33;;;;;;;;;;5053051;28;20445;-58
2023/06/14 09:29:14;;;;;;;5.13;4.83;;;;;;;;;;5052722;28;20413;-59
2023/06/14 09:31:40;;;;;;;4.53;4.00;;;;;;;;;;5053071;28;20548;-58
2023/06/14 09:34:06;;;;;;;5.47;4.97;;;;;;;;;;5052629;28;20461;-58
2023/06/14 09:36:32;;;;;;;14.20;5.10;;;;;;;;;;5052660;28;20990;-59
2023/06/14 09:38:59;;;;;;;8.27;4.43;;;;;;;;;;5052534;28;20406;-59
2023/06/14 09:41:34;;;;;;;5.67;5.10;;;;;;;;;;5052575;28;20472;-59
2023/06/14 09:44:02;;;;;;;5.53;4.70;;;;;;;;;;5052383;28;20421;-58
2023/06/14 09:46:29;;;;;;;8.00;6.97;;;;;;;;;;5052738;28;20500;-58
2023/06/14 09:48:57;;;;;;;10.13;4.80;;;;;;;;;;5052851;28;20457;-58
2023/06/14 09:51:24;;;;;;;6.53;5.17;;;;;;;;;;5052505;28;20415;-58
2023/06/14 09:53:50;;;;;;;5.90;4.50;;;;;;;;;;5052684;28;20434;-60
2023/06/14 09:56:20;;;;;;;11.53;4.90;;;;;;;;;;5052379;28;20487;-57
2023/06/14 09:58:46;;;;;;;6.70;4.87;;;;;;;;;;5052621;28;20419;-58
2023/06/14 10:01:13;;;;;;;4.93;4.63;;;;;;;;;;5052609;28;20461;-58
2023/06/14 10:03:40;;;;;;;6.67;4.07;;;;;;;;;;5050523;28;20449;-57
2023/06/14 10:06:07;;;;;;;5.10;4.60;;;;;;;;;;5052321;28;20415;-57
2023/06/14 10:08:36;;;;;;;5.33;4.40;;;;;;;;;;5052529;28;20418;-58
2023/06/14 10:11:02;;;;;;;10.47;4.63;;;;;;;;;;5052239;28;20772;-58
2023/06/14 10:13:32;;;;;;;9.20;4.63;;;;;;;;;;5051715;28;20415;-58
2023/06/14 10:16:01;;;;;;;9.40;4.90;;;;;;;;;;5052259;28;20536;-57
2023/06/14 10:18:35;;;;;;;16.17;4.80;;;;;;;;;;5052507;28;20583;-57
2023/06/14 10:21:01;;;;;;;5.27;4.87;;;;;;;;;;5052329;28;20423;-58
2023/06/14 10:23:28;;;;;;;5.13;4.83;;;;;;;;;;5052090;28;20404;-57
2023/06/14 10:25:59;;;;;;;12.70;4.97;;;;;;;;;;5052812;28;20444;-58
2023/06/14 10:28:26;;;;;;;15.67;5.00;;;;;;;;;;5052312;28;20425;-58
2023/06/14 10:31:05;;;;;;;7.60;4.93;;;;;;;;;;5051755;28;20441;-57
2023/06/14 10:33:32;;;;;;;6.10;5.50;;;;;;;;;;5052237;28;20772;-58
2023/06/14 10:36:08;;;;;;;8.93;4.90;;;;;;;;;;5052100;28;20480;-57
2023/06/14 10:38:35;;;;;;;11.53;4.90;;;;;;;;;;5052177;28;20769;-57
2023/06/14 10:41:01;;;;;;;4.50;4.20;;;;;;;;;;5050994;28;20992;-58
2023/06/14 10:43:27;;;;;;;5.63;5.13;;;;;;;;;;5052264;28;20508;-57
2023/06/14 10:46:11;;;;;;;6.60;5.57;;;;;;;;;;5052253;28;20529;-57
2023/06/14 10:48:41;;;;;;;6.60;4.67;;;;;;;;;;5052147;28;20414;-57
2023/06/14 10:51:16;;;;;;;5.47;5.07;;;;;;;;;;5052091;28;20416;-58
2023/06/14 10:53:43;;;;;;;12.37;4.40;;;;;;;;;;5052222;28;20801;-57
2023/06/14 10:56:24;;;;;;;4.50;4.10;;;;;;;;;;5051940;28;20474;-57
2023/06/14 10:58:50;;;;;;;4.90;4.20;;;;;;;;;;5052807;28;20782;-58
2023/06/14 11:01:18;;;;;;;5.27;4.77;;;;;;;;;;5052025;28;20936;-58
2023/06/14 11:03:55;;;;;;;7.03;4.20;;;;;;;;;;5051788;28;20784;-58
2023/06/14 11:06:24;;;;;;;5.60;4.47;;;;;;;;;;5051884;28;21028;-57
2023/06/14 11:08:52;;;;;;;7.37;4.30;;;;;;;;;;5051950;28;20418;-58
2023/06/14 11:11:23;;;;;;;5.10;4.80;;;;;;;;;;5051802;28;20499;-58
2023/06/14 11:13:49;;;;;;;5.10;4.30;;;;;;;;;;5052995;28;20493;-58
2023/06/14 11:16:16;;;;;;;7.40;6.30;;;;;;;;;;5055393;28;20414;-58
2023/06/14 11:18:42;;;;;;;5.30;4.80;;;;;;;;;;5055457;28;20453;-58
2023/06/14 11:21:09;;;;;;;4.30;4.00;;;;;;;;;;5055529;28;20503;-58
2023/06/14 11:23:35;;;;;;;8.43;4.93;;;;;;;;;;5055515;28;20409;-58
2023/06/14 11:26:04;;;;;;;7.43;4.20;;;;;;;;;;5055399;28;20452;-58
2023/06/14 11:28:37;;;;;;;4.53;4.23;;;;;;;;;;5055612;28;20510;-58
2023/06/14 11:31:04;;;;;;;6.00;4.40;;;;;;;;;;5055277;28;20421;-58
2023/06/14 11:33:35;;;;;;;6.10;4.70;;;;;;;;;;5054355;28;20483;-58
2023/06/14 11:36:06;;;;;;;7.33;4.40;;;;;;;;;;5055168;28;20480;-58
2023/06/14 11:38:38;;;;;;;6.50;4.87;;;;;;;;;;5055109;28;20436;-58
2023/06/14 11:41:04;;;;;;;4.63;4.37;;;;;;;;;;5055013;28;20889;-57
2023/06/14 11:43:34;;;;;;;5.17;4.87;;;;;;;;;;5054352;28;20440;-58
2023/06/14 11:46:03;;;;;;;5.50;5.00;;;;;;;;;;5054091;28;20451;-57
2023/06/14 11:48:45;;;;;;;4.37;4.07;;;;;;;;;;5055205;28;20539;-58
2023/06/14 11:51:15;;;;;;;6.80;4.37;;;;;;;;;;5054749;28;20435;-58
2023/06/14 11:53:43;;;;;;;4.63;4.43;;;;;;;;;;5054892;28;20942;-58
2023/06/14 11:56:10;;;;;;;7.77;4.93;;;;;;;;;;5053470;28;20973;-58
2023/06/14 11:58:38;;;;;;;7.10;4.70;;;;;;;;;;5054993;28;20414;-58
2023/06/14 12:01:08;;;;;;;7.00;5.93;;;;;;;;;;5054511;28;20466;-58
2023/06/14 12:03:35;;;;;;;5.23;4.73;;;;;;;;;;5055099;28;20774;-58
2023/06/14 12:06:04;;;;;;;4.13;3.90;;;;;;;;;;5054263;28;20431;-58
2023/06/14 12:08:38;;;;;;;10.17;4.40;;;;;;;;;;5054825;28;20468;-58
2023/06/14 12:11:04;;;;;;;8.40;4.57;;;;;;;;;;5054627;28;20403;-58
2023/06/14 12:13:30;;;;;;;8.43;4.80;;;;;;;;;;5054627;28;20414;-58
2023/06/14 12:15:59;;;;;;;6.70;4.53;;;;;;;;;;5054264;28;20513;-60
2023/06/14 12:18:35;;;;;;;5.23;4.27;;;;;;;;;;5054576;28;20407;-58
2023/06/14 12:21:06;;;;;;;5.43;3.90;;;;;;;;;;5054332;28;20411;-58
2023/06/14 12:23:45;;;;;;;4.30;4.10;;;;;;;;;;5054445;28;20501;-57
2023/06/14 12:26:15;;;;;;;6.77;4.00;;;;;;;;;;5053761;28;20434;-58
2023/06/14 12:28:44;;;;;;;4.53;4.23;;;;;;;;;;5054546;28;20498;-58
2023/06/14 12:31:13;;;;;;;5.60;5.10;;;;;;;;;;5053952;28;20415;-58
2023/06/14 12:33:40;;;;;;;4.63;4.20;;;;;;;;;;5054367;28;20444;-58
2023/06/14 12:36:10;;;;;;;4.20;3.57;;;;;;;;;;5054192;28;20988;-58
2023/06/14 12:38:39;;;;;;;8.93;4.10;;;;;;;;;;5054260;28;20462;-57
2023/06/14 12:41:05;;;;;;;5.60;3.93;;;;;;;;;;5053888;28;20496;-57
2023/06/14 12:43:31;;;;;;;6.23;4.27;;;;;;;;;;5053725;28;20411;-58
2023/06/14 12:46:00;;;;;;;4.40;4.20;;;;;;;;;;5052543;28;20446;-58
2023/06/14 12:48:30;;;;;;;4.40;4.03;;;;;;;;;;5054246;28;20407;-57
2023/06/14 12:50:56;;;;;;;8.73;4.00;;;;;;;;;;5053856;28;20505;-57
2023/06/14 12:53:23;;;;;;;8.13;4.50;;;;;;;;;;5054036;28;20493;-57
2023/06/14 12:55:49;;;;;;;5.77;4.23;;;;;;;;;;5053299;28;20473;-57
2023/06/14 12:58:16;;;;;;;7.37;4.60;;;;;;;;;;5053397;28;20414;-57
2023/06/14 13:00:47;;;;;;;4.20;4.10;;;;;;;;;;5052372;28;20407;-58
2023/06/14 13:03:13;;;;;;;4.10;3.80;;;;;;;;;;5053837;28;20854;-58
2023/06/14 13:05:42;;;;;;;4.67;4.27;;;;;;;;;;5053461;28;20431;-58
2023/06/14 13:08:11;;;;;;;7.20;6.43;;;;;;;;;;5053711;28;20419;-58
2023/06/14 13:10:37;;;;;;;5.80;4.23;;;;;;;;;;5054196;28;20406;-58
2023/06/14 13:13:03;;;;;;;4.27;4.07;;;;;;;;;;5054373;28;20520;-58
2023/06/14 13:15:29;;;;;;;5.47;4.33;;;;;;;;;;5054338;28;20458;-58
2023/06/14 13:17:57;;;;;;;6.00;3.90;;;;;;;;;;5053613;28;20412;-58
2023/06/14 13:20:28;;;;;;;18.33;4.57;;;;;;;;;;5054007;28;20472;-58
2023/06/14 13:22:54;;;;;;;4.40;4.20;;;;;;;;;;5053463;28;20460;-58
2023/06/14 13:25:20;;;;;;;5.63;3.60;;;;;;;;;;5053900;28;20544;-58
2023/06/14 13:27:46;;;;;;;8.07;4.63;;;;;;;;;;5054115;28;20415;-58
2023/06/14 13:30:12;;;;;;;4.00;3.90;;;;;;;;;;5054804;28;20427;-58
2023/06/14 13:32:38;;;;;;;4.47;4.03;;;;;;;;;;5053849;28;20810;-58
2023/06/14 13:35:04;;;;;;;5.93;4.90;;;;;;;;;;5053378;28;20454;-58
2023/06/14 13:37:30;;;;;;;6.60;3.93;;;;;;;;;;5053192;28;20427;-58
2023/06/14 13:39:56;;;;;;;4.43;3.47;;;;;;;;;;5053053;28;20403;-58
2023/06/14 13:42:22;;;;;;;4.53;4.17;;;;;;;;;;5052928;28;20842;-58
2023/06/14 13:44:48;;;;;;;8.47;4.33;;;;;;;;;;5052831;28;20947;-58
2023/06/14 13:47:14;;;;;;;3.80;3.50;;;;;;;;;;5052736;28;20645;-58
2023/06/14 13:49:40;;;;;;;6.30;4.17;;;;;;;;;;5053298;28;20882;-58
2023/06/14 13:52:11;;;;;;;4.77;4.30;;;;;;;;;;5052650;28;20460;-58
2023/06/14 13:54:37;;;;;;;4.87;4.43;;;;;;;;;;5052226;28;20983;-58
2023/06/14 13:57:03;;;;;;;4.30;4.07;;;;;;;;;;5052353;28;20410;-58
2023/06/14 13:59:29;;;;;;;5.40;4.50;;;;;;;;;;5052737;28;20411;-57
2023/06/14 14:01:55;;;;;;;16.37;4.27;;;;;;;;;;5052675;28;20457;-58
2023/06/14 14:04:21;;;;;;;4.23;4.03;;;;;;;;;;5052593;28;20512;-58
2023/06/14 14:06:48;;;;;;;6.73;3.77;;;;;;;;;;5052624;28;20562;-58
2023/06/14 14:09:14;;;;;;;5.70;3.83;;;;;;;;;;5052455;28;20438;-58
2023/06/14 14:11:42;;;;;;;4.33;4.03;;;;;;;;;;5052274;28;20431;-58
2023/06/14 14:14:10;;;;;;;5.60;4.30;;;;;;;;;;5052463;28;20407;-58
2023/06/14 14:16:37;;;;;;;8.20;4.20;;;;;;;;;;5052528;28;20415;-58
2023/06/14 14:19:06;;;;;;;4.10;3.97;;;;;;;;;;5052004;28;20450;-58
2023/06/14 14:21:32;;;;;;;3.70;3.60;;;;;;;;;;5052543;28;20473;-58
2023/06/14 14:23:58;;;;;;;11.73;4.00;;;;;;;;;;5051868;28;20468;-58
2023/06/14 14:26:24;;;;;;;8.20;6.70;;;;;;;;;;5034348;28;20427;-58
2023/06/14 14:28:51;;;;;;;4.37;3.93;;;;;;;;;;5050853;28;20967;-58
2023/06/14 14:31:17;;;;;;;8.03;3.97;;;;;;;;;;5052175;28;20430;-58
2023/06/14 14:33:43;;;;;;;4.07;3.87;;;;;;;;;;5052356;28;20492;-58
2023/06/14 14:36:09;;;;;;;5.53;3.60;;;;;;;;;;5051736;28;20545;-58
2023/06/14 14:38:35;;;;;;;9.87;4.20;;;;;;;;;;5052187;28;20423;-58
2023/06/14 14:41:01;;;;;;;4.10;3.87;;;;;;;;;;5052257;28;20777;-58
2023/06/14 14:43:30;;;;;;;5.47;4.03;;;;;;;;;;5051954;28;20407;-58